sensor_id;sensor_type;location;lat;lon;timestamp;P1;durP1;ratioP1;P2;durP2;ratioP2
15449;SDS011;7826;49.784;9.934;2023-01-15T00:01:55;0.73;;;0.73;;
15449;SDS011;7826;49.784;9.934;2023-01-15T00:04:21;0.80;;;0.80;;
15449;SDS011;7826;49.784;9.934;2023-01-15T00:06:48;0.60;;;0.60;;
15449;SDS011;7826;49.784;9.934;2023-01-15T00:09:15;0.83;;;0.53;;
15449;SDS011;7826;49.784;9.934;2023-01-15T00:11:41;0.63;;;0.63;;
15449;SDS011;7826;49.784;9.934;2023-01-15T00:14:07;2.10;;;0.50;;
15449;SDS011;7826;49.784;9.934;2023-01-15T00:16:33;0.40;;;0.40;;
15449;SDS011;7826;49.784;9.934;2023-01-15T00:19:00;0.50;;;0.50;;
15449;SDS011;7826;49.784;9.934;2023-01-15T00:21:30;0.50;;;0.50;;
15449;SDS011;7826;49.784;9.934;2023-01-15T00:23:56;0.60;;;0.60;;
15449;SDS011;7826;49.784;9.934;2023-01-15T00:26:41;0.57;;;0.57;;
15449;SDS011;7826;49.784;9.934;2023-01-15T00:29:26;1.77;;;0.70;;
15449;SDS011;7826;49.784;9.934;2023-01-15T00:31:59;0.67;;;0.67;;
15449;SDS011;7826;49.784;9.934;2023-01-15T00:34:28;0.50;;;0.50;;
15449;SDS011;7826;49.784;9.934;2023-01-15T00:36:55;0.40;;;0.40;;
15449;SDS011;7826;49.784;9.934;2023-01-15T00:39:23;0.40;;;0.40;;
15449;SDS011;7826;49.784;9.934;2023-01-15T00:41:50;0.40;;;0.40;;
15449;SDS011;7826;49.784;9.934;2023-01-15T00:44:16;0.50;;;0.50;;
15449;SDS011;7826;49.784;9.934;2023-01-15T00:46:43;0.40;;;0.40;;
15449;SDS011;7826;49.784;9.934;2023-01-15T00:49:09;0.50;;;0.50;;
15449;SDS011;7826;49.784;9.934;2023-01-15T00:51:35;0.30;;;0.30;;
15449;SDS011;7826;49.784;9.934;2023-01-15T00:54:01;0.50;;;0.50;;
15449;SDS011;7826;49.784;9.934;2023-01-15T00:56:28;0.50;;;0.50;;
15449;SDS011;7826;49.784;9.934;2023-01-15T00:58:55;0.37;;;0.37;;
15449;SDS011;7826;49.784;9.934;2023-01-15T01:01:21;0.40;;;0.40;;
15449;SDS011;7826;49.784;9.934;2023-01-15T01:03:47;0.50;;;0.50;;
15449;SDS011;7826;49.784;9.934;2023-01-15T01:06:17;0.50;;;0.50;;
15449;SDS011;7826;49.784;9.934;2023-01-15T01:08:45;0.40;;;0.40;;
15449;SDS011;7826;49.784;9.934;2023-01-15T01:11:13;0.40;;;0.40;;
15449;SDS011;7826;49.784;9.934;2023-01-15T01:13:41;0.50;;;0.50;;
15449;SDS011;7826;49.784;9.934;2023-01-15T01:16:20;0.60;;;0.60;;
15449;SDS011;7826;49.784;9.934;2023-01-15T01:18:58;0.50;;;0.50;;
15449;SDS011;7826;49.784;9.934;2023-01-15T01:21:26;0.40;;;0.40;;
15449;SDS011;7826;49.784;9.934;2023-01-15T01:23:52;0.50;;;0.50;;
15449;SDS011;7826;49.784;9.934;2023-01-15T01:26:19;0.40;;;0.40;;
15449;SDS011;7826;49.784;9.934;2023-01-15T01:28:49;0.40;;;0.40;;
15449;SDS011;7826;49.784;9.934;2023-01-15T01:31:17;0.50;;;0.50;;
15449;SDS011;7826;49.784;9.934;2023-01-15T01:33:46;0.40;;;0.40;;
15449;SDS011;7826;49.784;9.934;2023-01-15T01:36:16;0.40;;;0.40;;
15449;SDS011;7826;49.784;9.934;2023-01-15T01:38:45;0.40;;;0.40;;
15449;SDS011;7826;49.784;9.934;2023-01-15T01:41:15;0.40;;;0.40;;
15449;SDS011;7826;49.784;9.934;2023-01-15T01:46:25;0.40;;;0.40;;
15449;SDS011;7826;49.784;9.934;2023-01-15T01:48:54;0.50;;;0.50;;
15449;SDS011;7826;49.784;9.934;2023-01-15T01:51:34;1.43;;;0.67;;
15449;SDS011;7826;49.784;9.934;2023-01-15T01:54:03;0.40;;;0.40;;
15449;SDS011;7826;49.784;9.934;2023-01-15T01:56:31;0.40;;;0.40;;
15449;SDS011;7826;49.784;9.934;2023-01-15T01:59:00;0.40;;;0.40;;
15449;SDS011;7826;49.784;9.934;2023-01-15T02:01:29;0.40;;;0.40;;
15449;SDS011;7826;49.784;9.934;2023-01-15T02:03:55;0.50;;;0.50;;
15449;SDS011;7826;49.784;9.934;2023-01-15T02:06:23;0.60;;;0.60;;
15449;SDS011;7826;49.784;9.934;2023-01-15T02:08:52;0.60;;;0.60;;
15449;SDS011;7826;49.784;9.934;2023-01-15T02:11:19;1.40;;;0.50;;
15449;SDS011;7826;49.784;9.934;2023-01-15T02:16:34;0.50;;;0.50;;
15449;SDS011;7826;49.784;9.934;2023-01-15T02:19:16;0.50;;;0.50;;
15449;SDS011;7826;49.784;9.934;2023-01-15T02:22:13;1.40;;;0.40;;
15449;SDS011;7826;49.784;9.934;2023-01-15T02:24:59;0.40;;;0.40;;
15449;SDS011;7826;49.784;9.934;2023-01-15T02:27:35;0.83;;;0.50;;
15449;SDS011;7826;49.784;9.934;2023-01-15T02:30:25;0.50;;;0.50;;
15449;SDS011;7826;49.784;9.934;2023-01-15T02:32:56;0.60;;;0.60;;
15449;SDS011;7826;49.784;9.934;2023-01-15T02:35:30;0.40;;;0.40;;
15449;SDS011;7826;49.784;9.934;2023-01-15T02:38:14;0.50;;;0.50;;
15449;SDS011;7826;49.784;9.934;2023-01-15T02:40:45;0.60;;;0.60;;
15449;SDS011;7826;49.784;9.934;2023-01-15T02:43:14;0.40;;;0.40;;
15449;SDS011;7826;49.784;9.934;2023-01-15T02:45:44;0.60;;;0.60;;
15449;SDS011;7826;49.784;9.934;2023-01-15T02:48:14;0.40;;;0.40;;
15449;SDS011;7826;49.784;9.934;2023-01-15T02:50:44;0.60;;;0.60;;
15449;SDS011;7826;49.784;9.934;2023-01-15T02:53:16;0.30;;;0.30;;
15449;SDS011;7826;49.784;9.934;2023-01-15T02:55:48;0.60;;;0.60;;
15449;SDS011;7826;49.784;9.934;2023-01-15T02:58:29;0.40;;;0.40;;
15449;SDS011;7826;49.784;9.934;2023-01-15T03:00:59;0.43;;;0.43;;
15449;SDS011;7826;49.784;9.934;2023-01-15T03:03:37;0.60;;;0.60;;
15449;SDS011;7826;49.784;9.934;2023-01-15T03:06:26;0.50;;;0.50;;
15449;SDS011;7826;49.784;9.934;2023-01-15T03:09:12;0.57;;;0.53;;
15449;SDS011;7826;49.784;9.934;2023-01-15T03:11:43;0.40;;;0.40;;
15449;SDS011;7826;49.784;9.934;2023-01-15T03:15:19;0.57;;;0.57;;
15449;SDS011;7826;49.784;9.934;2023-01-15T03:20:16;0.50;;;0.50;;
15449;SDS011;7826;49.784;9.934;2023-01-15T03:22:53;0.43;;;0.43;;
15449;SDS011;7826;49.784;9.934;2023-01-15T03:25:26;0.40;;;0.40;;
15449;SDS011;7826;49.784;9.934;2023-01-15T03:27:58;0.60;;;0.60;;
15449;SDS011;7826;49.784;9.934;2023-01-15T03:30:28;0.40;;;0.40;;
15449;SDS011;7826;49.784;9.934;2023-01-15T03:32:57;0.50;;;0.50;;
15449;SDS011;7826;49.784;9.934;2023-01-15T03:38:09;0.80;;;0.50;;
15449;SDS011;7826;49.784;9.934;2023-01-15T03:40:38;1.13;;;0.47;;
15449;SDS011;7826;49.784;9.934;2023-01-15T03:44:15;0.50;;;0.50;;
15449;SDS011;7826;49.784;9.934;2023-01-15T03:51:56;0.30;;;0.30;;
15449;SDS011;7826;49.784;9.934;2023-01-15T03:54:33;0.33;;;0.33;;
15449;SDS011;7826;49.784;9.934;2023-01-15T03:57:10;0.40;;;0.40;;
15449;SDS011;7826;49.784;9.934;2023-01-15T03:59:45;0.40;;;0.40;;
15449;SDS011;7826;49.784;9.934;2023-01-15T04:02:16;0.50;;;0.50;;
15449;SDS011;7826;49.784;9.934;2023-01-15T04:04:45;0.40;;;0.40;;
15449;SDS011;7826;49.784;9.934;2023-01-15T04:07:13;0.93;;;0.50;;
15449;SDS011;7826;49.784;9.934;2023-01-15T04:09:58;0.40;;;0.40;;
15449;SDS011;7826;49.784;9.934;2023-01-15T04:12:42;0.30;;;0.30;;
15449;SDS011;7826;49.784;9.934;2023-01-15T04:15:10;0.30;;;0.30;;
15449;SDS011;7826;49.784;9.934;2023-01-15T04:17:37;0.30;;;0.30;;
15449;SDS011;7826;49.784;9.934;2023-01-15T04:20:04;0.47;;;0.47;;
15449;SDS011;7826;49.784;9.934;2023-01-15T04:22:31;0.43;;;0.43;;
15449;SDS011;7826;49.784;9.934;2023-01-15T04:24:57;0.40;;;0.40;;
15449;SDS011;7826;49.784;9.934;2023-01-15T04:27:24;0.87;;;0.40;;
15449;SDS011;7826;49.784;9.934;2023-01-15T04:29:51;0.30;;;0.30;;
15449;SDS011;7826;49.784;9.934;2023-01-15T04:32:18;0.33;;;0.33;;
15449;SDS011;7826;49.784;9.934;2023-01-15T04:34:44;0.40;;;0.40;;
15449;SDS011;7826;49.784;9.934;2023-01-15T04:37:11;0.40;;;0.40;;
15449;SDS011;7826;49.784;9.934;2023-01-15T04:39:38;0.30;;;0.30;;
15449;SDS011;7826;49.784;9.934;2023-01-15T04:42:05;0.27;;;0.27;;
15449;SDS011;7826;49.784;9.934;2023-01-15T04:44:55;0.30;;;0.30;;
15449;SDS011;7826;49.784;9.934;2023-01-15T04:47:21;0.30;;;0.30;;
15449;SDS011;7826;49.784;9.934;2023-01-15T04:49:47;0.30;;;0.30;;
15449;SDS011;7826;49.784;9.934;2023-01-15T04:52:14;0.30;;;0.30;;
15449;SDS011;7826;49.784;9.934;2023-01-15T04:54:40;0.30;;;0.30;;
15449;SDS011;7826;49.784;9.934;2023-01-15T04:57:06;0.30;;;0.30;;
15449;SDS011;7826;49.784;9.934;2023-01-15T04:59:33;0.40;;;0.40;;
15449;SDS011;7826;49.784;9.934;2023-01-15T05:01:59;0.43;;;0.43;;
15449;SDS011;7826;49.784;9.934;2023-01-15T05:04:26;5.60;;;0.63;;
15449;SDS011;7826;49.784;9.934;2023-01-15T05:06:52;0.57;;;0.57;;
15449;SDS011;7826;49.784;9.934;2023-01-15T05:09:18;0.30;;;0.30;;
15449;SDS011;7826;49.784;9.934;2023-01-15T05:11:44;0.30;;;0.30;;
15449;SDS011;7826;49.784;9.934;2023-01-15T05:14:11;0.30;;;0.30;;
15449;SDS011;7826;49.784;9.934;2023-01-15T05:16:37;0.30;;;0.30;;
15449;SDS011;7826;49.784;9.934;2023-01-15T05:19:04;0.40;;;0.40;;
15449;SDS011;7826;49.784;9.934;2023-01-15T05:21:35;0.47;;;0.47;;
15449;SDS011;7826;49.784;9.934;2023-01-15T05:24:05;0.50;;;0.50;;
15449;SDS011;7826;49.784;9.934;2023-01-15T05:26:33;0.30;;;0.30;;
15449;SDS011;7826;49.784;9.934;2023-01-15T05:29:00;0.40;;;0.40;;
15449;SDS011;7826;49.784;9.934;2023-01-15T05:31:27;0.50;;;0.50;;
15449;SDS011;7826;49.784;9.934;2023-01-15T05:33:54;0.33;;;0.33;;
15449;SDS011;7826;49.784;9.934;2023-01-15T05:36:22;0.40;;;0.40;;
15449;SDS011;7826;49.784;9.934;2023-01-15T05:38:50;0.40;;;0.40;;
15449;SDS011;7826;49.784;9.934;2023-01-15T05:41:18;0.43;;;0.43;;
15449;SDS011;7826;49.784;9.934;2023-01-15T05:44:04;0.30;;;0.30;;
15449;SDS011;7826;49.784;9.934;2023-01-15T05:46:33;0.40;;;0.40;;
15449;SDS011;7826;49.784;9.934;2023-01-15T05:49:00;0.50;;;0.50;;
15449;SDS011;7826;49.784;9.934;2023-01-15T05:51:28;0.30;;;0.30;;
15449;SDS011;7826;49.784;9.934;2023-01-15T05:53:55;0.40;;;0.40;;
15449;SDS011;7826;49.784;9.934;2023-01-15T05:56:22;0.37;;;0.37;;
15449;SDS011;7826;49.784;9.934;2023-01-15T05:58:49;0.40;;;0.40;;
15449;SDS011;7826;49.784;9.934;2023-01-15T06:01:15;0.30;;;0.30;;
15449;SDS011;7826;49.784;9.934;2023-01-15T06:03:42;0.50;;;0.50;;
15449;SDS011;7826;49.784;9.934;2023-01-15T06:06:12;0.40;;;0.40;;
15449;SDS011;7826;49.784;9.934;2023-01-15T06:08:40;0.43;;;0.43;;
15449;SDS011;7826;49.784;9.934;2023-01-15T06:11:06;0.40;;;0.40;;
15449;SDS011;7826;49.784;9.934;2023-01-15T06:13:33;0.40;;;0.40;;
15449;SDS011;7826;49.784;9.934;2023-01-15T06:15:59;0.43;;;0.43;;
15449;SDS011;7826;49.784;9.934;2023-01-15T06:18:26;0.40;;;0.40;;
15449;SDS011;7826;49.784;9.934;2023-01-15T06:20:52;0.40;;;0.40;;
15449;SDS011;7826;49.784;9.934;2023-01-15T06:23:19;0.40;;;0.40;;
15449;SDS011;7826;49.784;9.934;2023-01-15T06:25:45;0.30;;;0.30;;
15449;SDS011;7826;49.784;9.934;2023-01-15T06:28:12;0.30;;;0.30;;
15449;SDS011;7826;49.784;9.934;2023-01-15T06:30:39;1.27;;;0.40;;
15449;SDS011;7826;49.784;9.934;2023-01-15T06:33:05;0.40;;;0.40;;
15449;SDS011;7826;49.784;9.934;2023-01-15T06:35:32;0.30;;;0.30;;
15449;SDS011;7826;49.784;9.934;2023-01-15T06:38:00;0.50;;;0.50;;
15449;SDS011;7826;49.784;9.934;2023-01-15T06:40:26;0.30;;;0.30;;
15449;SDS011;7826;49.784;9.934;2023-01-15T06:42:56;0.40;;;0.40;;
15449;SDS011;7826;49.784;9.934;2023-01-15T06:45:41;0.40;;;0.40;;
15449;SDS011;7826;49.784;9.934;2023-01-15T06:48:26;0.47;;;0.47;;
15449;SDS011;7826;49.784;9.934;2023-01-15T06:50:53;0.50;;;0.50;;
15449;SDS011;7826;49.784;9.934;2023-01-15T06:53:19;0.50;;;0.50;;
15449;SDS011;7826;49.784;9.934;2023-01-15T06:55:46;0.40;;;0.40;;
15449;SDS011;7826;49.784;9.934;2023-01-15T06:58:13;0.40;;;0.40;;
15449;SDS011;7826;49.784;9.934;2023-01-15T07:00:39;0.60;;;0.60;;
15449;SDS011;7826;49.784;9.934;2023-01-15T07:03:09;0.73;;;0.40;;
15449;SDS011;7826;49.784;9.934;2023-01-15T07:05:39;0.40;;;0.40;;
15449;SDS011;7826;49.784;9.934;2023-01-15T07:08:05;1.33;;;0.73;;
15449;SDS011;7826;49.784;9.934;2023-01-15T07:10:32;1.43;;;0.80;;
15449;SDS011;7826;49.784;9.934;2023-01-15T07:12:59;0.77;;;0.50;;
15449;SDS011;7826;49.784;9.934;2023-01-15T07:15:26;0.40;;;0.40;;
15449;SDS011;7826;49.784;9.934;2023-01-15T07:17:55;0.50;;;0.40;;
15449;SDS011;7826;49.784;9.934;2023-01-15T07:20:21;0.40;;;0.40;;
15449;SDS011;7826;49.784;9.934;2023-01-15T07:22:49;0.47;;;0.47;;
15449;SDS011;7826;49.784;9.934;2023-01-15T07:25:18;1.03;;;0.70;;
15449;SDS011;7826;49.784;9.934;2023-01-15T07:27:45;0.50;;;0.50;;
15449;SDS011;7826;49.784;9.934;2023-01-15T07:30:13;0.47;;;0.47;;
15449;SDS011;7826;49.784;9.934;2023-01-15T07:32:40;0.60;;;0.60;;
15449;SDS011;7826;49.784;9.934;2023-01-15T07:35:07;0.40;;;0.40;;
15449;SDS011;7826;49.784;9.934;2023-01-15T07:37:34;0.40;;;0.40;;
15449;SDS011;7826;49.784;9.934;2023-01-15T07:40:01;0.50;;;0.50;;
15449;SDS011;7826;49.784;9.934;2023-01-15T07:42:27;0.47;;;0.47;;
15449;SDS011;7826;49.784;9.934;2023-01-15T07:45:12;0.40;;;0.40;;
15449;SDS011;7826;49.784;9.934;2023-01-15T07:47:57;0.40;;;0.40;;
15449;SDS011;7826;49.784;9.934;2023-01-15T07:50:42;0.60;;;0.60;;
15449;SDS011;7826;49.784;9.934;2023-01-15T07:53:09;0.60;;;0.60;;
15449;SDS011;7826;49.784;9.934;2023-01-15T07:55:35;0.60;;;0.60;;
15449;SDS011;7826;49.784;9.934;2023-01-15T07:58:02;0.40;;;0.40;;
15449;SDS011;7826;49.784;9.934;2023-01-15T08:00:28;0.50;;;0.50;;
15449;SDS011;7826;49.784;9.934;2023-01-15T08:02:54;0.40;;;0.40;;
15449;SDS011;7826;49.784;9.934;2023-01-15T08:05:20;0.73;;;0.73;;
15449;SDS011;7826;49.784;9.934;2023-01-15T08:07:47;0.70;;;0.70;;
15449;SDS011;7826;49.784;9.934;2023-01-15T08:10:14;0.50;;;0.50;;
15449;SDS011;7826;49.784;9.934;2023-01-15T08:12:41;0.60;;;0.60;;
15449;SDS011;7826;49.784;9.934;2023-01-15T08:15:26;0.40;;;0.40;;
15449;SDS011;7826;49.784;9.934;2023-01-15T08:17:59;1.40;;;0.80;;
15449;SDS011;7826;49.784;9.934;2023-01-15T08:20:25;0.53;;;0.53;;
15449;SDS011;7826;49.784;9.934;2023-01-15T08:22:52;0.50;;;0.50;;
15449;SDS011;7826;49.784;9.934;2023-01-15T08:25:19;0.60;;;0.60;;
15449;SDS011;7826;49.784;9.934;2023-01-15T08:27:48;0.53;;;0.50;;
15449;SDS011;7826;49.784;9.934;2023-01-15T08:30:16;0.50;;;0.50;;
15449;SDS011;7826;49.784;9.934;2023-01-15T08:32:45;0.60;;;0.60;;
15449;SDS011;7826;49.784;9.934;2023-01-15T08:35:11;0.40;;;0.40;;
15449;SDS011;7826;49.784;9.934;2023-01-15T08:37:39;0.50;;;0.50;;
15449;SDS011;7826;49.784;9.934;2023-01-15T08:40:06;0.50;;;0.50;;
15449;SDS011;7826;49.784;9.934;2023-01-15T08:42:33;0.60;;;0.60;;
15449;SDS011;7826;49.784;9.934;2023-01-15T08:44:59;0.50;;;0.50;;
15449;SDS011;7826;49.784;9.934;2023-01-15T08:47:26;0.50;;;0.50;;
15449;SDS011;7826;49.784;9.934;2023-01-15T08:49:52;1.40;;;0.70;;
15449;SDS011;7826;49.784;9.934;2023-01-15T08:52:19;0.70;;;0.70;;
15449;SDS011;7826;49.784;9.934;2023-01-15T08:54:45;0.50;;;0.50;;
15449;SDS011;7826;49.784;9.934;2023-01-15T08:57:12;0.70;;;0.70;;
15449;SDS011;7826;49.784;9.934;2023-01-15T08:59:38;0.80;;;0.80;;
15449;SDS011;7826;49.784;9.934;2023-01-15T09:02:10;0.70;;;0.70;;
15449;SDS011;7826;49.784;9.934;2023-01-15T09:04:42;0.47;;;0.47;;
15449;SDS011;7826;49.784;9.934;2023-01-15T09:07:09;0.47;;;0.47;;
15449;SDS011;7826;49.784;9.934;2023-01-15T09:09:35;0.80;;;0.80;;
15449;SDS011;7826;49.784;9.934;2023-01-15T09:12:01;0.73;;;0.73;;
15449;SDS011;7826;49.784;9.934;2023-01-15T09:14:28;0.70;;;0.70;;
15449;SDS011;7826;49.784;9.934;2023-01-15T09:16:54;0.63;;;0.63;;
15449;SDS011;7826;49.784;9.934;2023-01-15T09:19:22;0.70;;;0.70;;
15449;SDS011;7826;49.784;9.934;2023-01-15T09:21:48;0.70;;;0.70;;
15449;SDS011;7826;49.784;9.934;2023-01-15T09:24:14;1.13;;;0.83;;
15449;SDS011;7826;49.784;9.934;2023-01-15T09:26:41;0.70;;;0.70;;
15449;SDS011;7826;49.784;9.934;2023-01-15T09:29:07;0.50;;;0.50;;
15449;SDS011;7826;49.784;9.934;2023-01-15T09:31:34;0.60;;;0.60;;
15449;SDS011;7826;49.784;9.934;2023-01-15T09:34:01;0.63;;;0.63;;
15449;SDS011;7826;49.784;9.934;2023-01-15T09:36:32;0.73;;;0.73;;
15449;SDS011;7826;49.784;9.934;2023-01-15T09:39:00;0.83;;;0.83;;
15449;SDS011;7826;49.784;9.934;2023-01-15T09:47:14;0.80;;;0.80;;
15449;SDS011;7826;49.784;9.934;2023-01-15T09:57:44;0.60;;;0.60;;
15449;SDS011;7826;49.784;9.934;2023-01-15T10:00:18;0.80;;;0.80;;
15449;SDS011;7826;49.784;9.934;2023-01-15T10:05:25;0.93;;;0.60;;
15449;SDS011;7826;49.784;9.934;2023-01-15T10:07:59;0.80;;;0.80;;
15449;SDS011;7826;49.784;9.934;2023-01-15T10:10:51;0.60;;;0.60;;
15449;SDS011;7826;49.784;9.934;2023-01-15T10:16:21;0.80;;;0.80;;
15449;SDS011;7826;49.784;9.934;2023-01-15T10:18:50;1.47;;;1.10;;
15449;SDS011;7826;49.784;9.934;2023-01-15T10:24:01;0.60;;;0.60;;
15449;SDS011;7826;49.784;9.934;2023-01-15T10:26:42;0.60;;;0.60;;
15449;SDS011;7826;49.784;9.934;2023-01-15T10:35:06;0.93;;;0.93;;
15449;SDS011;7826;49.784;9.934;2023-01-15T10:37:50;0.67;;;0.67;;
15449;SDS011;7826;49.784;9.934;2023-01-15T10:46:13;0.57;;;0.57;;
15449;SDS011;7826;49.784;9.934;2023-01-15T10:48:45;1.00;;;1.00;;
15449;SDS011;7826;49.784;9.934;2023-01-15T10:51:16;0.80;;;0.70;;
15449;SDS011;7826;49.784;9.934;2023-01-15T10:56:25;1.43;;;0.80;;
15449;SDS011;7826;49.784;9.934;2023-01-15T11:01:42;0.80;;;0.80;;
15449;SDS011;7826;49.784;9.934;2023-01-15T11:04:11;0.83;;;0.83;;
15449;SDS011;7826;49.784;9.934;2023-01-15T11:06:40;0.60;;;0.53;;
15449;SDS011;7826;49.784;9.934;2023-01-15T11:09:08;0.87;;;0.87;;
15449;SDS011;7826;49.784;9.934;2023-01-15T11:12:05;2.23;;;0.93;;
15449;SDS011;7826;49.784;9.934;2023-01-15T11:14:44;3.40;;;0.87;;
15449;SDS011;7826;49.784;9.934;2023-01-15T11:17:31;1.00;;;0.93;;
15449;SDS011;7826;49.784;9.934;2023-01-15T11:20:35;0.70;;;0.70;;
15449;SDS011;7826;49.784;9.934;2023-01-15T11:23:18;1.13;;;0.80;;
15449;SDS011;7826;49.784;9.934;2023-01-15T11:25:50;0.60;;;0.60;;
15449;SDS011;7826;49.784;9.934;2023-01-15T11:28:17;0.50;;;0.50;;
15449;SDS011;7826;49.784;9.934;2023-01-15T11:31:00;0.60;;;0.60;;
15449;SDS011;7826;49.784;9.934;2023-01-15T11:33:27;0.50;;;0.50;;
15449;SDS011;7826;49.784;9.934;2023-01-15T11:35:57;2.17;;;0.70;;
15449;SDS011;7826;49.784;9.934;2023-01-15T11:38:30;0.73;;;0.73;;
15449;SDS011;7826;49.784;9.934;2023-01-15T11:43:58;0.63;;;0.63;;
15449;SDS011;7826;49.784;9.934;2023-01-15T11:46:46;0.70;;;0.70;;
15449;SDS011;7826;49.784;9.934;2023-01-15T11:49:30;0.70;;;0.70;;
15449;SDS011;7826;49.784;9.934;2023-01-15T11:52:16;0.70;;;0.70;;
15449;SDS011;7826;49.784;9.934;2023-01-15T11:54:45;0.70;;;0.70;;
15449;SDS011;7826;49.784;9.934;2023-01-15T11:57:23;0.60;;;0.60;;
15449;SDS011;7826;49.784;9.934;2023-01-15T11:59:52;0.80;;;0.50;;
15449;SDS011;7826;49.784;9.934;2023-01-15T12:04:48;0.50;;;0.50;;
15449;SDS011;7826;49.784;9.934;2023-01-15T12:07:19;0.70;;;0.70;;
15449;SDS011;7826;49.784;9.934;2023-01-15T12:21:31;1.30;;;0.73;;
15449;SDS011;7826;49.784;9.934;2023-01-15T12:29:40;0.50;;;0.50;;
15449;SDS011;7826;49.784;9.934;2023-01-15T12:32:13;0.50;;;0.50;;
15449;SDS011;7826;49.784;9.934;2023-01-15T12:34:53;0.50;;;0.50;;
15449;SDS011;7826;49.784;9.934;2023-01-15T12:37:29;0.90;;;0.80;;
15449;SDS011;7826;49.784;9.934;2023-01-15T12:42:45;1.63;;;0.60;;
15449;SDS011;7826;49.784;9.934;2023-01-15T12:45:33;0.43;;;0.43;;
15449;SDS011;7826;49.784;9.934;2023-01-15T12:48:28;0.60;;;0.60;;
15449;SDS011;7826;49.784;9.934;2023-01-15T12:51:02;2.43;;;0.60;;
15449;SDS011;7826;49.784;9.934;2023-01-15T12:53:50;1.10;;;0.60;;
15449;SDS011;7826;49.784;9.934;2023-01-15T12:56:59;0.50;;;0.50;;
15449;SDS011;7826;49.784;9.934;2023-01-15T13:00:14;0.80;;;0.80;;
15449;SDS011;7826;49.784;9.934;2023-01-15T13:05:52;0.40;;;0.40;;
15449;SDS011;7826;49.784;9.934;2023-01-15T13:10:59;0.60;;;0.60;;
15449;SDS011;7826;49.784;9.934;2023-01-15T13:13:29;0.60;;;0.60;;
15449;SDS011;7826;49.784;9.934;2023-01-15T13:21:55;3.90;;;0.67;;
15449;SDS011;7826;49.784;9.934;2023-01-15T13:30:03;0.60;;;0.60;;
15449;SDS011;7826;49.784;9.934;2023-01-15T13:32:46;0.40;;;0.40;;
15449;SDS011;7826;49.784;9.934;2023-01-15T13:35:24;0.50;;;0.50;;
15449;SDS011;7826;49.784;9.934;2023-01-15T13:38:02;0.50;;;0.50;;
15449;SDS011;7826;49.784;9.934;2023-01-15T13:40:40;0.60;;;0.60;;
15449;SDS011;7826;49.784;9.934;2023-01-15T13:43:17;3.03;;;1.00;;
15449;SDS011;7826;49.784;9.934;2023-01-15T13:45:55;1.00;;;0.80;;
15449;SDS011;7826;49.784;9.934;2023-01-15T13:48:25;2.00;;;0.60;;
15449;SDS011;7826;49.784;9.934;2023-01-15T13:51:03;0.40;;;0.40;;
15449;SDS011;7826;49.784;9.934;2023-01-15T13:53:33;0.50;;;0.50;;
15449;SDS011;7826;49.784;9.934;2023-01-15T13:56:09;0.50;;;0.50;;
15449;SDS011;7826;49.784;9.934;2023-01-15T13:58:50;0.50;;;0.50;;
15449;SDS011;7826;49.784;9.934;2023-01-15T14:01:32;0.50;;;0.50;;
15449;SDS011;7826;49.784;9.934;2023-01-15T14:06:51;0.50;;;0.50;;
15449;SDS011;7826;49.784;9.934;2023-01-15T14:22:36;0.70;;;0.70;;
15449;SDS011;7826;49.784;9.934;2023-01-15T14:35:58;0.50;;;0.50;;
15449;SDS011;7826;49.784;9.934;2023-01-15T14:38:35;0.63;;;0.57;;
15449;SDS011;7826;49.784;9.934;2023-01-15T14:41:03;2.53;;;0.67;;
15449;SDS011;7826;49.784;9.934;2023-01-15T14:43:33;1.47;;;0.80;;
15449;SDS011;7826;49.784;9.934;2023-01-15T14:46:11;0.60;;;0.60;;
15449;SDS011;7826;49.784;9.934;2023-01-15T14:48:44;1.20;;;0.70;;
15449;SDS011;7826;49.784;9.934;2023-01-15T14:51:12;0.77;;;0.67;;
15449;SDS011;7826;49.784;9.934;2023-01-15T14:53:46;0.50;;;0.50;;
15449;SDS011;7826;49.784;9.934;2023-01-15T14:56:18;0.63;;;0.63;;
15449;SDS011;7826;49.784;9.934;2023-01-15T15:07:02;1.10;;;0.97;;
15449;SDS011;7826;49.784;9.934;2023-01-15T15:09:34;0.73;;;0.60;;
15449;SDS011;7826;49.784;9.934;2023-01-15T15:20:36;0.60;;;0.60;;
15449;SDS011;7826;49.784;9.934;2023-01-15T15:31:26;0.80;;;0.80;;
15449;SDS011;7826;49.784;9.934;2023-01-15T15:33:55;0.67;;;0.67;;
15449;SDS011;7826;49.784;9.934;2023-01-15T15:36:24;0.73;;;0.67;;
15449;SDS011;7826;49.784;9.934;2023-01-15T15:38:54;0.87;;;0.77;;
15449;SDS011;7826;49.784;9.934;2023-01-15T15:41:24;0.70;;;0.70;;
15449;SDS011;7826;49.784;9.934;2023-01-15T15:44:16;2.47;;;0.80;;
15449;SDS011;7826;49.784;9.934;2023-01-15T15:47:42;0.80;;;0.80;;
15449;SDS011;7826;49.784;9.934;2023-01-15T15:50:22;0.77;;;0.77;;
15449;SDS011;7826;49.784;9.934;2023-01-15T15:52:53;0.63;;;0.63;;
15449;SDS011;7826;49.784;9.934;2023-01-15T15:55:21;0.90;;;0.67;;
15449;SDS011;7826;49.784;9.934;2023-01-15T15:57:54;1.50;;;0.77;;
15449;SDS011;7826;49.784;9.934;2023-01-15T16:00:37;1.43;;;0.90;;
15449;SDS011;7826;49.784;9.934;2023-01-15T16:03:06;1.67;;;1.10;;
15449;SDS011;7826;49.784;9.934;2023-01-15T16:05:52;0.73;;;0.73;;
15449;SDS011;7826;49.784;9.934;2023-01-15T16:08:24;1.80;;;0.83;;
15449;SDS011;7826;49.784;9.934;2023-01-15T16:10:54;1.13;;;1.00;;
15449;SDS011;7826;49.784;9.934;2023-01-15T16:15:59;0.80;;;0.80;;
15449;SDS011;7826;49.784;9.934;2023-01-15T16:18:31;0.63;;;0.63;;
15449;SDS011;7826;49.784;9.934;2023-01-15T16:21:00;1.93;;;0.70;;
15449;SDS011;7826;49.784;9.934;2023-01-15T16:23:28;4.57;;;1.10;;
15449;SDS011;7826;49.784;9.934;2023-01-15T16:28:25;2.63;;;1.10;;
15449;SDS011;7826;49.784;9.934;2023-01-15T16:30:56;1.93;;;1.20;;
15449;SDS011;7826;49.784;9.934;2023-01-15T16:33:24;1.23;;;1.10;;
15449;SDS011;7826;49.784;9.934;2023-01-15T16:35:58;1.10;;;1.00;;
15449;SDS011;7826;49.784;9.934;2023-01-15T16:38:39;1.97;;;0.77;;
15449;SDS011;7826;49.784;9.934;2023-01-15T16:41:20;1.33;;;0.90;;
15449;SDS011;7826;49.784;9.934;2023-01-15T16:43:57;0.70;;;0.70;;
15449;SDS011;7826;49.784;9.934;2023-01-15T16:46:27;0.87;;;0.87;;
15449;SDS011;7826;49.784;9.934;2023-01-15T16:51:58;1.90;;;1.00;;
15449;SDS011;7826;49.784;9.934;2023-01-15T17:02:03;1.20;;;1.07;;
15449;SDS011;7826;49.784;9.934;2023-01-15T17:04:36;1.90;;;1.13;;
15449;SDS011;7826;49.784;9.934;2023-01-15T17:09:47;1.43;;;0.97;;
15449;SDS011;7826;49.784;9.934;2023-01-15T17:12:38;0.90;;;0.90;;
15449;SDS011;7826;49.784;9.934;2023-01-15T17:17:39;1.50;;;0.83;;
15449;SDS011;7826;49.784;9.934;2023-01-15T17:20:07;0.80;;;0.80;;
15449;SDS011;7826;49.784;9.934;2023-01-15T17:22:36;1.30;;;1.20;;
15449;SDS011;7826;49.784;9.934;2023-01-15T17:25:19;0.77;;;0.77;;
15449;SDS011;7826;49.784;9.934;2023-01-15T17:27:47;4.73;;;1.00;;
15449;SDS011;7826;49.784;9.934;2023-01-15T17:30:14;0.80;;;0.80;;
15449;SDS011;7826;49.784;9.934;2023-01-15T17:32:40;0.80;;;0.80;;
15449;SDS011;7826;49.784;9.934;2023-01-15T17:37:56;1.03;;;0.80;;
15449;SDS011;7826;49.784;9.934;2023-01-15T17:40:23;3.50;;;0.70;;
15449;SDS011;7826;49.784;9.934;2023-01-15T17:42:51;0.70;;;0.70;;
15449;SDS011;7826;49.784;9.934;2023-01-15T17:45:28;0.70;;;0.70;;
15449;SDS011;7826;49.784;9.934;2023-01-15T17:47:55;0.87;;;0.80;;
15449;SDS011;7826;49.784;9.934;2023-01-15T17:50:22;2.83;;;1.17;;
15449;SDS011;7826;49.784;9.934;2023-01-15T17:52:49;5.13;;;1.13;;
15449;SDS011;7826;49.784;9.934;2023-01-15T17:55:17;1.30;;;1.20;;
15449;SDS011;7826;49.784;9.934;2023-01-15T17:58:04;1.10;;;1.00;;
15449;SDS011;7826;49.784;9.934;2023-01-15T18:00:50;1.20;;;1.10;;
15449;SDS011;7826;49.784;9.934;2023-01-15T18:03:36;0.90;;;0.90;;
15449;SDS011;7826;49.784;9.934;2023-01-15T18:06:26;0.80;;;0.80;;
15449;SDS011;7826;49.784;9.934;2023-01-15T18:08:53;0.90;;;0.90;;
15449;SDS011;7826;49.784;9.934;2023-01-15T18:11:22;0.83;;;0.83;;
15449;SDS011;7826;49.784;9.934;2023-01-15T18:13:48;1.10;;;0.80;;
15449;SDS011;7826;49.784;9.934;2023-01-15T18:16:15;2.30;;;1.20;;
15449;SDS011;7826;49.784;9.934;2023-01-15T18:18:41;0.70;;;0.70;;
15449;SDS011;7826;49.784;9.934;2023-01-15T18:21:08;2.40;;;0.73;;
15449;SDS011;7826;49.784;9.934;2023-01-15T18:23:34;0.97;;;0.97;;